sensor_id;sensor_type;location;lat;lon;timestamp;P1;durP1;ratioP1;P2;durP2;ratioP2
21729;SDS011;11027;51.030;13.812;2023-08-07T00:00:19;1.20;;;1.10;;
21729;SDS011;11027;51.030;13.812;2023-08-07T00:02:44;1.55;;;1.45;;
21729;SDS011;11027;51.030;13.812;2023-08-07T00:05:10;3.88;;;1.50;;
21729;SDS011;11027;51.030;13.812;2023-08-07T00:07:35;2.35;;;1.33;;
21729;SDS011;11027;51.030;13.812;2023-08-07T00:10:00;1.55;;;1.33;;
21729;SDS011;11027;51.030;13.812;2023-08-07T00:12:26;3.78;;;1.77;;
21729;SDS011;11027;51.030;13.812;2023-08-07T00:14:52;1.75;;;1.25;;
21729;SDS011;11027;51.030;13.812;2023-08-07T00:17:17;8.27;;;1.27;;
21729;SDS011;11027;51.030;13.812;2023-08-07T00:19:42;1.20;;;1.10;;
21729;SDS011;11027;51.030;13.812;2023-08-07T00:22:08;5.45;;;1.33;;
21729;SDS011;11027;51.030;13.812;2023-08-07T00:24:33;3.05;;;1.42;;
21729;SDS011;11027;51.030;13.812;2023-08-07T00:26:58;2.95;;;1.27;;
21729;SDS011;11027;51.030;13.812;2023-08-07T00:29:24;0.90;;;0.90;;
21729;SDS011;11027;51.030;13.812;2023-08-07T00:31:49;1.10;;;1.00;;
21729;SDS011;11027;51.030;13.812;2023-08-07T00:34:14;4.22;;;1.23;;
21729;SDS011;11027;51.030;13.812;2023-08-07T00:36:40;1.88;;;1.25;;
21729;SDS011;11027;51.030;13.812;2023-08-07T00:39:05;2.15;;;1.10;;
21729;SDS011;11027;51.030;13.812;2023-08-07T00:41:31;3.97;;;1.20;;
21729;SDS011;11027;51.030;13.812;2023-08-07T00:43:56;1.35;;;1.10;;
21729;SDS011;11027;51.030;13.812;2023-08-07T00:46:21;2.22;;;1.20;;
21729;SDS011;11027;51.030;13.812;2023-08-07T00:48:47;2.90;;;1.30;;
21729;SDS011;11027;51.030;13.812;2023-08-07T00:51:12;4.53;;;1.40;;
21729;SDS011;11027;51.030;13.812;2023-08-07T00:53:38;2.85;;;1.20;;
21729;SDS011;11027;51.030;13.812;2023-08-07T00:56:04;1.50;;;1.38;;
21729;SDS011;11027;51.030;13.812;2023-08-07T00:58:30;1.30;;;1.20;;
21729;SDS011;11027;51.030;13.812;2023-08-07T01:00:56;1.30;;;1.10;;
21729;SDS011;11027;51.030;13.812;2023-08-07T01:03:23;1.40;;;1.25;;
21729;SDS011;11027;51.030;13.812;2023-08-07T01:05:48;2.03;;;1.48;;
21729;SDS011;11027;51.030;13.812;2023-08-07T01:08:13;2.75;;;1.67;;
21729;SDS011;11027;51.030;13.812;2023-08-07T01:10:51;1.92;;;1.80;;
21729;SDS011;11027;51.030;13.812;2023-08-07T01:13:28;3.92;;;1.90;;
21729;SDS011;11027;51.030;13.812;2023-08-07T01:15:59;4.00;;;1.83;;
21729;SDS011;11027;51.030;13.812;2023-08-07T01:18:32;2.03;;;1.83;;
21729;SDS011;11027;51.030;13.812;2023-08-07T01:20:59;3.00;;;1.80;;
21729;SDS011;11027;51.030;13.812;2023-08-07T01:23:24;4.45;;;1.75;;
21729;SDS011;11027;51.030;13.812;2023-08-07T01:25:50;4.03;;;1.60;;
21729;SDS011;11027;51.030;13.812;2023-08-07T01:28:32;2.03;;;1.92;;
21729;SDS011;11027;51.030;13.812;2023-08-07T01:31:03;3.53;;;2.03;;
21729;SDS011;11027;51.030;13.812;2023-08-07T01:33:40;3.65;;;1.98;;
21729;SDS011;11027;51.030;13.812;2023-08-07T01:36:27;5.75;;;2.10;;
21729;SDS011;11027;51.030;13.812;2023-08-07T01:38:55;2.03;;;1.63;;
21729;SDS011;11027;51.030;13.812;2023-08-07T01:41:22;3.40;;;1.58;;
21729;SDS011;11027;51.030;13.812;2023-08-07T01:43:47;4.53;;;1.90;;
21729;SDS011;11027;51.030;13.812;2023-08-07T01:46:13;1.70;;;1.60;;
21729;SDS011;11027;51.030;13.812;2023-08-07T01:48:38;1.80;;;1.70;;
21729;SDS011;11027;51.030;13.812;2023-08-07T01:51:03;2.30;;;1.67;;
21729;SDS011;11027;51.030;13.812;2023-08-07T01:53:28;1.88;;;1.77;;
21729;SDS011;11027;51.030;13.812;2023-08-07T01:55:54;1.70;;;1.60;;
21729;SDS011;11027;51.030;13.812;2023-08-07T01:58:19;1.92;;;1.83;;
21729;SDS011;11027;51.030;13.812;2023-08-07T02:00:44;4.30;;;1.95;;
21729;SDS011;11027;51.030;13.812;2023-08-07T02:03:10;1.60;;;1.50;;
21729;SDS011;11027;51.030;13.812;2023-08-07T02:05:35;3.20;;;1.90;;
21729;SDS011;11027;51.030;13.812;2023-08-07T02:08:00;3.70;;;1.60;;
21729;SDS011;11027;51.030;13.812;2023-08-07T02:10:25;2.35;;;2.00;;
21729;SDS011;11027;51.030;13.812;2023-08-07T02:12:51;2.35;;;2.00;;
21729;SDS011;11027;51.030;13.812;2023-08-07T02:15:16;4.68;;;2.33;;
21729;SDS011;11027;51.030;13.812;2023-08-07T02:17:41;2.75;;;2.00;;
21729;SDS011;11027;51.030;13.812;2023-08-07T02:20:07;7.07;;;2.22;;
21729;SDS011;11027;51.030;13.812;2023-08-07T02:22:33;5.40;;;2.30;;
21729;SDS011;11027;51.030;13.812;2023-08-07T02:24:58;3.80;;;2.38;;
21729;SDS011;11027;51.030;13.812;2023-08-07T02:27:24;7.55;;;2.83;;
21729;SDS011;11027;51.030;13.812;2023-08-07T02:29:49;4.80;;;2.88;;
21729;SDS011;11027;51.030;13.812;2023-08-07T02:32:16;6.07;;;2.83;;
21729;SDS011;11027;51.030;13.812;2023-08-07T02:34:41;3.95;;;2.85;;
21729;SDS011;11027;51.030;13.812;2023-08-07T02:37:06;5.82;;;3.08;;
21729;SDS011;11027;51.030;13.812;2023-08-07T02:39:31;5.20;;;3.10;;
21729;SDS011;11027;51.030;13.812;2023-08-07T02:41:57;4.43;;;2.80;;
21729;SDS011;11027;51.030;13.812;2023-08-07T02:44:22;4.72;;;3.65;;
21729;SDS011;11027;51.030;13.812;2023-08-07T02:46:47;3.55;;;3.03;;
21729;SDS011;11027;51.030;13.812;2023-08-07T02:49:12;3.50;;;3.20;;
21729;SDS011;11027;51.030;13.812;2023-08-07T02:51:38;5.38;;;2.90;;
21729;SDS011;11027;51.030;13.812;2023-08-07T02:54:03;4.40;;;3.22;;
21729;SDS011;11027;51.030;13.812;2023-08-07T02:56:28;3.20;;;2.80;;
21729;SDS011;11027;51.030;13.812;2023-08-07T02:58:54;5.30;;;3.15;;
21729;SDS011;11027;51.030;13.812;2023-08-07T03:01:19;3.20;;;2.90;;
21729;SDS011;11027;51.030;13.812;2023-08-07T03:03:46;4.55;;;3.00;;
21729;SDS011;11027;51.030;13.812;2023-08-07T03:06:11;3.05;;;2.80;;
21729;SDS011;11027;51.030;13.812;2023-08-07T03:08:36;6.18;;;3.30;;
21729;SDS011;11027;51.030;13.812;2023-08-07T03:11:01;3.88;;;3.30;;
21729;SDS011;11027;51.030;13.812;2023-08-07T03:13:27;6.45;;;3.53;;
21729;SDS011;11027;51.030;13.812;2023-08-07T03:16:04;4.28;;;3.20;;
21729;SDS011;11027;51.030;13.812;2023-08-07T03:18:31;3.53;;;3.20;;
21729;SDS011;11027;51.030;13.812;2023-08-07T03:20:57;2.92;;;2.67;;
21729;SDS011;11027;51.030;13.812;2023-08-07T03:23:26;2.70;;;2.50;;
21729;SDS011;11027;51.030;13.812;2023-08-07T03:26:05;1.60;;;1.50;;
21729;SDS011;11027;51.030;13.812;2023-08-07T03:28:32;1.90;;;1.70;;
21729;SDS011;11027;51.030;13.812;2023-08-07T03:30:57;2.58;;;1.83;;
21729;SDS011;11027;51.030;13.812;2023-08-07T03:33:22;5.95;;;1.85;;
21729;SDS011;11027;51.030;13.812;2023-08-07T03:35:48;2.53;;;1.67;;
21729;SDS011;11027;51.030;13.812;2023-08-07T03:38:13;3.58;;;1.90;;
21729;SDS011;11027;51.030;13.812;2023-08-07T03:40:38;2.85;;;1.90;;
21729;SDS011;11027;51.030;13.812;2023-08-07T03:43:03;2.40;;;1.80;;
21729;SDS011;11027;51.030;13.812;2023-08-07T03:45:29;3.03;;;1.73;;
21729;SDS011;11027;51.030;13.812;2023-08-07T03:47:54;1.98;;;1.83;;
21729;SDS011;11027;51.030;13.812;2023-08-07T03:50:19;2.72;;;2.17;;
21729;SDS011;11027;51.030;13.812;2023-08-07T03:52:44;3.33;;;2.13;;
21729;SDS011;11027;51.030;13.812;2023-08-07T03:55:10;4.03;;;1.98;;
21729;SDS011;11027;51.030;13.812;2023-08-07T03:57:35;3.00;;;2.28;;
21729;SDS011;11027;51.030;13.812;2023-08-07T04:00:00;2.38;;;2.10;;
21729;SDS011;11027;51.030;13.812;2023-08-07T04:02:25;3.90;;;2.15;;
21729;SDS011;11027;51.030;13.812;2023-08-07T04:04:52;2.47;;;2.22;;
21729;SDS011;11027;51.030;13.812;2023-08-07T04:07:17;2.83;;;1.90;;
21729;SDS011;11027;51.030;13.812;2023-08-07T04:09:43;4.80;;;2.25;;
21729;SDS011;11027;51.030;13.812;2023-08-07T04:12:08;4.63;;;2.10;;
21729;SDS011;11027;51.030;13.812;2023-08-07T04:14:34;7.47;;;2.33;;
21729;SDS011;11027;51.030;13.812;2023-08-07T04:16:59;4.78;;;2.20;;
21729;SDS011;11027;51.030;13.812;2023-08-07T04:19:25;3.85;;;2.38;;
21729;SDS011;11027;51.030;13.812;2023-08-07T04:21:51;3.38;;;2.38;;
21729;SDS011;11027;51.030;13.812;2023-08-07T04:24:16;2.80;;;2.40;;
21729;SDS011;11027;51.030;13.812;2023-08-07T04:26:41;3.50;;;2.50;;
21729;SDS011;11027;51.030;13.812;2023-08-07T04:29:06;5.30;;;3.00;;
21729;SDS011;11027;51.030;13.812;2023-08-07T04:31:32;3.28;;;2.97;;
21729;SDS011;11027;51.030;13.812;2023-08-07T04:33:57;3.35;;;3.00;;
21729;SDS011;11027;51.030;13.812;2023-08-07T04:36:23;4.43;;;3.15;;
21729;SDS011;11027;51.030;13.812;2023-08-07T04:38:49;6.75;;;3.40;;
21729;SDS011;11027;51.030;13.812;2023-08-07T04:41:15;6.50;;;3.75;;
21729;SDS011;11027;51.030;13.812;2023-08-07T04:43:40;4.72;;;3.70;;
21729;SDS011;11027;51.030;13.812;2023-08-07T04:46:07;5.03;;;3.70;;
21729;SDS011;11027;51.030;13.812;2023-08-07T04:48:33;5.05;;;4.07;;
21729;SDS011;11027;51.030;13.812;2023-08-07T04:50:58;6.93;;;4.03;;
21729;SDS011;11027;51.030;13.812;2023-08-07T04:53:24;5.20;;;4.13;;
21729;SDS011;11027;51.030;13.812;2023-08-07T04:55:49;5.35;;;3.90;;
21729;SDS011;11027;51.030;13.812;2023-08-07T04:58:14;7.85;;;4.30;;
21729;SDS011;11027;51.030;13.812;2023-08-07T05:00:39;8.18;;;4.20;;
21729;SDS011;11027;51.030;13.812;2023-08-07T05:03:05;6.28;;;4.38;;
21729;SDS011;11027;51.030;13.812;2023-08-07T05:05:30;5.65;;;4.15;;
21729;SDS011;11027;51.030;13.812;2023-08-07T05:07:57;9.95;;;4.85;;
21729;SDS011;11027;51.030;13.812;2023-08-07T05:10:23;5.93;;;4.97;;
21729;SDS011;11027;51.030;13.812;2023-08-07T05:12:48;6.20;;;4.60;;
21729;SDS011;11027;51.030;13.812;2023-08-07T05:15:19;7.95;;;4.55;;
21729;SDS011;11027;51.030;13.812;2023-08-07T05:17:45;6.88;;;4.50;;
21729;SDS011;11027;51.030;13.812;2023-08-07T05:20:10;8.40;;;4.70;;
21729;SDS011;11027;51.030;13.812;2023-08-07T05:22:36;6.90;;;5.07;;
21729;SDS011;11027;51.030;13.812;2023-08-07T05:25:02;6.95;;;5.05;;
21729;SDS011;11027;51.030;13.812;2023-08-07T05:27:28;7.72;;;4.38;;
21729;SDS011;11027;51.030;13.812;2023-08-07T05:29:53;7.53;;;4.97;;
21729;SDS011;11027;51.030;13.812;2023-08-07T05:32:18;10.52;;;4.85;;
21729;SDS011;11027;51.030;13.812;2023-08-07T05:34:43;6.35;;;4.55;;
21729;SDS011;11027;51.030;13.812;2023-08-07T05:37:09;6.57;;;4.40;;
21729;SDS011;11027;51.030;13.812;2023-08-07T05:39:34;11.40;;;4.95;;
21729;SDS011;11027;51.030;13.812;2023-08-07T05:42:00;8.43;;;4.30;;
21729;SDS011;11027;51.030;13.812;2023-08-07T05:44:26;6.28;;;3.50;;
21729;SDS011;11027;51.030;13.812;2023-08-07T05:46:51;4.78;;;4.00;;
21729;SDS011;11027;51.030;13.812;2023-08-07T05:49:17;4.82;;;3.78;;
21729;SDS011;11027;51.030;13.812;2023-08-07T05:51:42;7.13;;;3.70;;
21729;SDS011;11027;51.030;13.812;2023-08-07T05:54:07;6.45;;;3.45;;
21729;SDS011;11027;51.030;13.812;2023-08-07T05:56:33;6.10;;;3.30;;
21729;SDS011;11027;51.030;13.812;2023-08-07T05:58:58;5.70;;;3.10;;
21729;SDS011;11027;51.030;13.812;2023-08-07T06:01:23;4.15;;;2.95;;
21729;SDS011;11027;51.030;13.812;2023-08-07T06:03:54;5.53;;;3.20;;
21729;SDS011;11027;51.030;13.812;2023-08-07T06:06:19;3.65;;;2.85;;
21729;SDS011;11027;51.030;13.812;2023-08-07T06:08:45;5.32;;;2.78;;
21729;SDS011;11027;51.030;13.812;2023-08-07T06:11:10;5.03;;;2.50;;
21729;SDS011;11027;51.030;13.812;2023-08-07T06:13:35;4.03;;;2.53;;
21729;SDS011;11027;51.030;13.812;2023-08-07T06:16:00;5.00;;;2.78;;
21729;SDS011;11027;51.030;13.812;2023-08-07T06:18:26;6.07;;;2.63;;
21729;SDS011;11027;51.030;13.812;2023-08-07T06:20:51;3.33;;;2.63;;
21729;SDS011;11027;51.030;13.812;2023-08-07T06:23:16;4.32;;;2.67;;
21729;SDS011;11027;51.030;13.812;2023-08-07T06:25:42;7.32;;;2.70;;
21729;SDS011;11027;51.030;13.812;2023-08-07T06:28:08;4.75;;;2.35;;
21729;SDS011;11027;51.030;13.812;2023-08-07T06:30:33;4.80;;;2.17;;
21729;SDS011;11027;51.030;13.812;2023-08-07T06:32:58;4.07;;;2.10;;
21729;SDS011;11027;51.030;13.812;2023-08-07T06:35:23;3.28;;;2.22;;
21729;SDS011;11027;51.030;13.812;2023-08-07T06:37:49;2.88;;;2.05;;
21729;SDS011;11027;51.030;13.812;2023-08-07T06:40:14;2.42;;;1.50;;
21729;SDS011;11027;51.030;13.812;2023-08-07T06:42:39;4.43;;;2.10;;
21729;SDS011;11027;51.030;13.812;2023-08-07T06:45:05;2.88;;;1.98;;
21729;SDS011;11027;51.030;13.812;2023-08-07T06:47:31;3.70;;;2.08;;
21729;SDS011;11027;51.030;13.812;2023-08-07T06:49:56;5.25;;;1.90;;
21729;SDS011;11027;51.030;13.812;2023-08-07T06:52:22;3.50;;;1.70;;
21729;SDS011;11027;51.030;13.812;2023-08-07T06:54:47;3.38;;;1.77;;
21729;SDS011;11027;51.030;13.812;2023-08-07T06:57:12;3.50;;;1.85;;
21729;SDS011;11027;51.030;13.812;2023-08-07T06:59:38;4.32;;;1.90;;
21729;SDS011;11027;51.030;13.812;2023-08-07T07:02:04;4.05;;;1.75;;
21729;SDS011;11027;51.030;13.812;2023-08-07T07:04:29;2.17;;;1.70;;
21729;SDS011;11027;51.030;13.812;2023-08-07T07:06:54;4.80;;;1.80;;
21729;SDS011;11027;51.030;13.812;2023-08-07T07:09:20;2.90;;;1.55;;
21729;SDS011;11027;51.030;13.812;2023-08-07T07:11:45;1.98;;;1.77;;
21729;SDS011;11027;51.030;13.812;2023-08-07T07:14:11;1.55;;;1.40;;
21729;SDS011;11027;51.030;13.812;2023-08-07T07:16:36;5.07;;;1.50;;
21729;SDS011;11027;51.030;13.812;2023-08-07T07:19:02;2.55;;;1.48;;
21729;SDS011;11027;51.030;13.812;2023-08-07T07:21:28;2.20;;;1.50;;
21729;SDS011;11027;51.030;13.812;2023-08-07T07:23:53;6.32;;;1.50;;
21729;SDS011;11027;51.030;13.812;2023-08-07T07:26:19;2.58;;;1.55;;
21729;SDS011;11027;51.030;13.812;2023-08-07T07:28:44;1.48;;;1.35;;
21729;SDS011;11027;51.030;13.812;2023-08-07T07:31:10;1.98;;;1.20;;
21729;SDS011;11027;51.030;13.812;2023-08-07T07:33:36;3.25;;;1.40;;
21729;SDS011;11027;51.030;13.812;2023-08-07T07:36:04;3.78;;;1.70;;
21729;SDS011;11027;51.030;13.812;2023-08-07T07:38:30;3.10;;;1.30;;
21729;SDS011;11027;51.030;13.812;2023-08-07T07:40:55;4.15;;;1.30;;
21729;SDS011;11027;51.030;13.812;2023-08-07T07:43:22;3.40;;;1.50;;
21729;SDS011;11027;51.030;13.812;2023-08-07T07:45:47;2.75;;;1.30;;
21729;SDS011;11027;51.030;13.812;2023-08-07T07:48:12;4.43;;;1.40;;
21729;SDS011;11027;51.030;13.812;2023-08-07T07:50:38;5.13;;;1.20;;
21729;SDS011;11027;51.030;13.812;2023-08-07T07:53:03;1.75;;;1.30;;
21729;SDS011;11027;51.030;13.812;2023-08-07T07:55:28;4.00;;;1.35;;
21729;SDS011;11027;51.030;13.812;2023-08-07T07:57:54;4.20;;;1.20;;
21729;SDS011;11027;51.030;13.812;2023-08-07T08:00:20;4.35;;;1.05;;
21729;SDS011;11027;51.030;13.812;2023-08-07T08:02:47;3.95;;;1.40;;
21729;SDS011;11027;51.030;13.812;2023-08-07T08:05:12;2.53;;;1.10;;
21729;SDS011;11027;51.030;13.812;2023-08-07T08:07:38;1.90;;;1.25;;
21729;SDS011;11027;51.030;13.812;2023-08-07T08:10:05;1.35;;;1.00;;
21729;SDS011;11027;51.030;13.812;2023-08-07T08:12:31;4.00;;;1.08;;
21729;SDS011;11027;51.030;13.812;2023-08-07T08:14:57;2.60;;;0.90;;
21729;SDS011;11027;51.030;13.812;2023-08-07T08:17:22;3.25;;;1.00;;
21729;SDS011;11027;51.030;13.812;2023-08-07T08:19:48;1.52;;;0.80;;
21729;SDS011;11027;51.030;13.812;2023-08-07T08:22:13;2.45;;;1.02;;
21729;SDS011;11027;51.030;13.812;2023-08-07T08:24:38;1.50;;;0.80;;
21729;SDS011;11027;51.030;13.812;2023-08-07T08:27:04;2.00;;;1.02;;
21729;SDS011;11027;51.030;13.812;2023-08-07T08:29:29;2.08;;;1.02;;
21729;SDS011;11027;51.030;13.812;2023-08-07T08:31:54;6.32;;;1.08;;
21729;SDS011;11027;51.030;13.812;2023-08-07T08:34:20;2.58;;;0.80;;
21729;SDS011;11027;51.030;13.812;2023-08-07T08:36:46;3.00;;;0.98;;
21729;SDS011;11027;51.030;13.812;2023-08-07T08:39:11;7.43;;;1.05;;
21729;SDS011;11027;51.030;13.812;2023-08-07T08:41:37;2.47;;;1.13;;
21729;SDS011;11027;51.030;13.812;2023-08-07T08:44:02;3.90;;;1.52;;
21729;SDS011;11027;51.030;13.812;2023-08-07T08:46:30;1.88;;;1.00;;
21729;SDS011;11027;51.030;13.812;2023-08-07T08:48:57;0.93;;;0.82;;
21729;SDS011;11027;51.030;13.812;2023-08-07T08:51:24;4.10;;;1.00;;
21729;SDS011;11027;51.030;13.812;2023-08-07T08:53:53;2.22;;;1.23;;
21729;SDS011;11027;51.030;13.812;2023-08-07T08:56:21;1.77;;;0.95;;
21729;SDS011;11027;51.030;13.812;2023-08-07T08:58:47;3.00;;;0.88;;
21729;SDS011;11027;51.030;13.812;2023-08-07T09:01:13;3.67;;;1.00;;
21729;SDS011;11027;51.030;13.812;2023-08-07T09:03:40;1.83;;;1.20;;
21729;SDS011;11027;51.030;13.812;2023-08-07T09:06:05;1.15;;;0.60;;
21729;SDS011;11027;51.030;13.812;2023-08-07T09:08:32;1.13;;;0.65;;
21729;SDS011;11027;51.030;13.812;2023-08-07T09:10:57;1.92;;;0.68;;
21729;SDS011;11027;51.030;13.812;2023-08-07T09:13:23;0.77;;;0.70;;
21729;SDS011;11027;51.030;13.812;2023-08-07T09:15:52;1.20;;;0.73;;
21729;SDS011;11027;51.030;13.812;2023-08-07T09:18:18;2.05;;;0.70;;
21729;SDS011;11027;51.030;13.812;2023-08-07T09:20:46;0.70;;;0.57;;
21729;SDS011;11027;51.030;13.812;2023-08-07T09:23:11;1.60;;;0.82;;
21729;SDS011;11027;51.030;13.812;2023-08-07T09:25:37;4.78;;;0.70;;
21729;SDS011;11027;51.030;13.812;2023-08-07T09:28:06;1.02;;;0.68;;
21729;SDS011;11027;51.030;13.812;2023-08-07T09:30:32;19.58;;;16.35;;
21729;SDS011;11027;51.030;13.812;2023-08-07T09:33:00;6.78;;;5.05;;
21729;SDS011;11027;51.030;13.812;2023-08-07T09:35:25;7.22;;;0.88;;
21729;SDS011;11027;51.030;13.812;2023-08-07T09:37:51;3.53;;;0.82;;
21729;SDS011;11027;51.030;13.812;2023-08-07T09:40:17;4.60;;;0.93;;
21729;SDS011;11027;51.030;13.812;2023-08-07T09:42:44;1.33;;;0.60;;
21729;SDS011;11027;51.030;13.812;2023-08-07T09:50:25;0.95;;;0.52;;
21729;SDS011;11027;51.030;13.812;2023-08-07T09:52:51;1.33;;;0.73;;
21729;SDS011;11027;51.030;13.812;2023-08-07T09:55:17;1.23;;;0.60;;
21729;SDS011;11027;51.030;13.812;2023-08-07T09:57:43;3.28;;;0.65;;
21729;SDS011;11027;51.030;13.812;2023-08-07T10:00:09;3.92;;;0.80;;
21729;SDS011;11027;51.030;13.812;2023-08-07T10:02:36;1.40;;;0.70;;
21729;SDS011;11027;51.030;13.812;2023-08-07T10:05:02;1.27;;;0.60;;
21729;SDS011;11027;51.030;13.812;2023-08-07T10:07:30;0.93;;;0.55;;
21729;SDS011;11027;51.030;13.812;2023-08-07T10:09:56;1.02;;;0.60;;
21729;SDS011;11027;51.030;13.812;2023-08-07T10:12:23;1.30;;;0.80;;
21729;SDS011;11027;51.030;13.812;2023-08-07T10:14:48;2.65;;;0.98;;
21729;SDS011;11027;51.030;13.812;2023-08-07T10:17:13;1.77;;;0.85;;
21729;SDS011;11027;51.030;13.812;2023-08-07T10:19:39;0.75;;;0.50;;
21729;SDS011;11027;51.030;13.812;2023-08-07T10:22:05;0.40;;;0.40;;
21729;SDS011;11027;51.030;13.812;2023-08-07T10:24:30;2.15;;;0.60;;
21729;SDS011;11027;51.030;13.812;2023-08-07T10:26:56;2.33;;;0.70;;
21729;SDS011;11027;51.030;13.812;2023-08-07T10:29:23;1.02;;;0.50;;
21729;SDS011;11027;51.030;13.812;2023-08-07T10:31:50;0.70;;;0.60;;
21729;SDS011;11027;51.030;13.812;2023-08-07T10:34:18;0.90;;;0.57;;
21729;SDS011;11027;51.030;13.812;2023-08-07T10:36:43;2.72;;;0.90;;
21729;SDS011;11027;51.030;13.812;2023-08-07T10:39:09;2.42;;;0.80;;
21729;SDS011;11027;51.030;13.812;2023-08-07T10:41:41;2.97;;;0.70;;
21729;SDS011;11027;51.030;13.812;2023-08-07T10:44:16;1.52;;;0.90;;
21729;SDS011;11027;51.030;13.812;2023-08-07T10:46:46;2.65;;;0.80;;
21729;SDS011;11027;51.030;13.812;2023-08-07T10:49:29;3.10;;;0.85;;
21729;SDS011;11027;51.030;13.812;2023-08-07T10:51:58;1.90;;;0.80;;
21729;SDS011;11027;51.030;13.812;2023-08-07T10:54:26;1.30;;;0.77;;
21729;SDS011;11027;51.030;13.812;2023-08-07T10:56:52;5.22;;;0.70;;
21729;SDS011;11027;51.030;13.812;2023-08-07T10:59:19;2.08;;;0.80;;
21729;SDS011;11027;51.030;13.812;2023-08-07T11:01:48;1.40;;;0.88;;
21729;SDS011;11027;51.030;13.812;2023-08-07T11:04:16;2.88;;;0.50;;
21729;SDS011;11027;51.030;13.812;2023-08-07T11:06:42;1.92;;;0.80;;
21729;SDS011;11027;51.030;13.812;2023-08-07T11:09:13;2.22;;;0.70;;
21729;SDS011;11027;51.030;13.812;2023-08-07T11:11:39;4.80;;;0.88;;
21729;SDS011;11027;51.030;13.812;2023-08-07T11:14:06;1.35;;;0.90;;
21729;SDS011;11027;51.030;13.812;2023-08-07T11:16:32;5.15;;;0.80;;
21729;SDS011;11027;51.030;13.812;2023-08-07T11:18:59;1.17;;;0.50;;
21729;SDS011;11027;51.030;13.812;2023-08-07T11:21:25;0.90;;;0.60;;
21729;SDS011;11027;51.030;13.812;2023-08-07T11:23:50;2.78;;;0.70;;
21729;SDS011;11027;51.030;13.812;2023-08-07T11:26:15;0.93;;;0.65;;
21729;SDS011;11027;51.030;13.812;2023-08-07T11:28:42;0.98;;;0.60;;
21729;SDS011;11027;51.030;13.812;2023-08-07T11:31:07;2.75;;;0.57;;
21729;SDS011;11027;51.030;13.812;2023-08-07T11:33:32;1.23;;;0.52;;
21729;SDS011;11027;51.030;13.812;2023-08-07T11:35:58;3.10;;;0.50;;
21729;SDS011;11027;51.030;13.812;2023-08-07T11:38:37;2.13;;;0.65;;
21729;SDS011;11027;51.030;13.812;2023-08-07T11:41:04;3.38;;;0.80;;
21729;SDS011;11027;51.030;13.812;2023-08-07T11:43:31;1.73;;;0.65;;
21729;SDS011;11027;51.030;13.812;2023-08-07T11:46:03;1.45;;;0.55;;
21729;SDS011;11027;51.030;13.812;2023-08-07T11:48:31;1.25;;;0.77;;
21729;SDS011;11027;51.030;13.812;2023-08-07T11:50:58;1.70;;;0.73;;
21729;SDS011;11027;51.030;13.812;2023-08-07T11:53:25;1.88;;;1.10;;
21729;SDS011;11027;51.030;13.812;2023-08-07T11:55:55;2.65;;;0.80;;
21729;SDS011;11027;51.030;13.812;2023-08-07T11:58:25;1.60;;;0.90;;
21729;SDS011;11027;51.030;13.812;2023-08-07T12:00:52;1.20;;;0.82;;
21729;SDS011;11027;51.030;13.812;2023-08-07T12:05:57;1.88;;;0.80;;
21729;SDS011;11027;51.030;13.812;2023-08-07T12:08:23;1.75;;;0.88;;
21729;SDS011;11027;51.030;13.812;2023-08-07T12:10:50;0.88;;;0.50;;
21729;SDS011;11027;51.030;13.812;2023-08-07T12:13:19;3.60;;;1.15;;
21729;SDS011;11027;51.030;13.812;2023-08-07T12:15:46;2.42;;;1.00;;
21729;SDS011;11027;51.030;13.812;2023-08-07T12:18:11;1.90;;;1.23;;
21729;SDS011;11027;51.030;13.812;2023-08-07T12:20:38;2.10;;;1.00;;
21729;SDS011;11027;51.030;13.812;2023-08-07T12:23:03;4.13;;;1.20;;
21729;SDS011;11027;51.030;13.812;2023-08-07T12:25:28;4.05;;;0.75;;
21729;SDS011;11027;51.030;13.812;2023-08-07T12:27:53;1.25;;;0.85;;
21729;SDS011;11027;51.030;13.812;2023-08-07T12:30:19;2.30;;;0.70;;
21729;SDS011;11027;51.030;13.812;2023-08-07T12:32:44;1.55;;;0.55;;
21729;SDS011;11027;51.030;13.812;2023-08-07T12:35:09;1.42;;;0.45;;
21729;SDS011;11027;51.030;13.812;2023-08-07T12:37:35;0.50;;;0.30;;
21729;SDS011;11027;51.030;13.812;2023-08-07T12:40:00;0.95;;;0.40;;
21729;SDS011;11027;51.030;13.812;2023-08-07T12:42:25;0.30;;;0.30;;
21729;SDS011;11027;51.030;13.812;2023-08-07T12:44:50;2.53;;;0.50;;
21729;SDS011;11027;51.030;13.812;2023-08-07T12:47:15;2.75;;;0.60;;
21729;SDS011;11027;51.030;13.812;2023-08-07T12:49:41;1.83;;;0.40;;
21729;SDS011;11027;51.030;13.812;2023-08-07T12:52:06;0.85;;;0.70;;
21729;SDS011;11027;51.030;13.812;2023-08-07T12:54:31;0.93;;;0.40;;
21729;SDS011;11027;51.030;13.812;2023-08-07T12:56:57;0.85;;;0.45;;
21729;SDS011;11027;51.030;13.812;2023-08-07T12:59:22;2.47;;;0.43;;
21729;SDS011;11027;51.030;13.812;2023-08-07T13:01:47;1.15;;;0.25;;
21729;SDS011;11027;51.030;13.812;2023-08-07T13:04:13;0.93;;;0.40;;
21729;SDS011;11027;51.030;13.812;2023-08-07T13:06:40;0.70;;;0.47;;
21729;SDS011;11027;51.030;13.812;2023-08-07T13:09:05;1.70;;;0.47;;
21729;SDS011;11027;51.030;13.812;2023-08-07T13:11:30;1.52;;;0.60;;
21729;SDS011;11027;51.030;13.812;2023-08-07T13:13:56;0.63;;;0.35;;
21729;SDS011;11027;51.030;13.812;2023-08-07T13:16:21;0.77;;;0.60;;
21729;SDS011;11027;51.030;13.812;2023-08-07T13:18:46;0.40;;;0.35;;
21729;SDS011;11027;51.030;13.812;2023-08-07T13:21:12;3.05;;;0.50;;
21729;SDS011;11027;51.030;13.812;2023-08-07T13:23:37;1.70;;;0.60;;
21729;SDS011;11027;51.030;13.812;2023-08-07T13:26:02;1.65;;;0.70;;
21729;SDS011;11027;51.030;13.812;2023-08-07T13:28:27;1.40;;;0.45;;
21729;SDS011;11027;51.030;13.812;2023-08-07T13:30:53;0.85;;;0.30;;
21729;SDS011;11027;51.030;13.812;2023-08-07T13:33:20;0.20;;;0.20;;
21729;SDS011;11027;51.030;13.812;2023-08-07T13:35:46;1.85;;;0.20;;
21729;SDS011;11027;51.030;13.812;2023-08-07T13:38:11;2.28;;;0.35;;
21729;SDS011;11027;51.030;13.812;2023-08-07T13:40:38;5.07;;;0.20;;
21729;SDS011;11027;51.030;13.812;2023-08-07T13:43:03;1.98;;;0.20;;
21729;SDS011;11027;51.030;13.812;2023-08-07T13:45:32;0.55;;;0.20;;
21729;SDS011;11027;51.030;13.812;2023-08-07T13:47:58;1.85;;;0.30;;
21729;SDS011;11027;51.030;13.812;2023-08-07T13:50:23;0.17;;;0.17;;
21729;SDS011;11027;51.030;13.812;2023-08-07T13:52:48;0.68;;;0.10;;
21729;SDS011;11027;51.030;13.812;2023-08-07T13:55:13;1.27;;;0.28;;
21729;SDS011;11027;51.030;13.812;2023-08-07T13:57:39;0.90;;;0.30;;
21729;SDS011;11027;51.030;13.812;2023-08-07T14:00:04;0.35;;;0.30;;
21729;SDS011;11027;51.030;13.812;2023-08-07T14:02:30;0.75;;;0.20;;
21729;SDS011;11027;51.030;13.812;2023-08-07T14:04:56;0.40;;;0.20;;
21729;SDS011;11027;51.030;13.812;2023-08-07T14:07:22;0.30;;;0.30;;
21729;SDS011;11027;51.030;13.812;2023-08-07T14:09:48;0.70;;;0.40;;
21729;SDS011;11027;51.030;13.812;2023-08-07T14:12:13;0.77;;;0.30;;
21729;SDS011;11027;51.030;13.812;2023-08-07T14:14:38;1.05;;;0.50;;
21729;SDS011;11027;51.030;13.812;2023-08-07T14:17:03;5.68;;;0.65;;
21729;SDS011;11027;51.030;13.812;2023-08-07T14:19:29;3.40;;;0.50;;
21729;SDS011;11027;51.030;13.812;2023-08-07T14:21:54;0.45;;;0.30;;
21729;SDS011;11027;51.030;13.812;2023-08-07T14:24:20;1.35;;;0.57;;
21729;SDS011;11027;51.030;13.812;2023-08-07T14:26:45;1.65;;;0.50;;
21729;SDS011;11027;51.030;13.812;2023-08-07T14:29:10;3.97;;;0.60;;
21729;SDS011;11027;51.030;13.812;2023-08-07T14:31:37;2.67;;;0.57;;
21729;SDS011;11027;51.030;13.812;2023-08-07T14:34:02;1.75;;;0.63;;